Terminal Aerodrome Forecast
Issued by NWS

Home | Current Version | Previous Version | Text Only | Print | Product List | Glossary On
Versions: 1 2 3 4 5 6 7 8 9 10 11 12 13 14 15 16 17 18 19 20 21 22 23 24
000
FTUS41 KGYX 300533
TAFLEB
TAF
KLEB 300533Z 3006/3106 17003KT P6SM BKN080
     FM300900 00000KT 4SM BR SCT005
     FM301300 20006KT P6SM SCT050 SCT250
     FM302000 20008KT 4SM -TSRA BKN050CB OVC100
     FM310000 23003KT 6SM HZ OVC010=

USA.gov is the U.S. government's official web portal to all federal, state and local government web resources and services.